Time;durP1;ratioP1;P1;durP2;ratioP2;P2;SDS_P1;SDS_P2;PMS_P1;PMS_P2;Temp;Humidity;BMP_temperature;BMP_pressure;BME280_temperature;BME280_humidity;BME280_pressure;Samples;Min_cycle;Max_cycle;Signal;HPM_P1;HPM_P2
2022/12/26 00:00:57;;;;;;;;;3.25;3.25;;;;;20.54;44.06;100895.34;4959007;28;45840;-43
2022/12/26 00:03:22;;;;;;;;;4.00;2.75;;;;;20.53;44.09;100894.47;4959165;28;45289;-45
2022/12/26 00:05:47;;;;;;;;;4.75;3.00;;;;;20.54;43.80;100901.47;4959300;28;45578;-43
2022/12/26 00:08:13;;;;;;;;;2.00;2.00;;;;;20.53;43.88;100906.81;4958271;28;45463;-42
2022/12/26 00:10:38;;;;;;;;;2.75;2.75;;;;;20.53;43.63;100899.75;4958851;28;45887;-42
2022/12/26 00:13:03;;;;;;;;;3.75;3.25;;;;;20.53;44.19;100898.91;4958860;28;45334;-42
2022/12/26 00:15:29;;;;;;;;;2.50;2.50;;;;;20.48;43.60;100893.91;4959624;28;45404;-42
2022/12/26 00:17:54;;;;;;;;;3.00;2.00;;;;;20.52;43.67;100903.31;4959311;28;45285;-42
2022/12/26 00:20:20;;;;;;;;;4.50;2.25;;;;;20.53;44.10;100904.19;4958020;28;68500;-42
2022/12/26 00:22:45;;;;;;;;;6.50;3.50;;;;;20.52;43.71;100898.06;4959007;28;45521;-43
2022/12/26 00:25:10;;;;;;;;;5.00;3.00;;;;;20.51;44.04;100906.03;4958116;28;61395;-42
2022/12/26 00:27:35;;;;;;;;;4.00;3.00;;;;;20.52;44.07;100907.75;4968396;28;45624;-42
2022/12/26 00:30:01;;;;;;;;;3.00;3.00;;;;;20.52;43.77;100907.75;4968596;28;48623;-42
2022/12/26 00:32:26;;;;;;;;;5.25;2.75;;;;;20.51;44.12;100912.16;4961631;28;45396;-42
2022/12/26 00:34:51;;;;;;;;;2.67;2.00;;;;;20.46;44.15;100890.50;4959914;28;62343;-42
2022/12/26 00:37:16;;;;;;;;;2.00;2.00;;;;;20.51;43.73;100906.03;4958394;28;58029;-42
2022/12/26 00:39:42;;;;;;;;;3.00;3.00;;;;;20.50;43.74;100902.56;4957464;28;47642;-42
2022/12/26 00:42:07;;;;;;;;;5.00;3.75;;;;;20.51;43.70;100890.25;4960474;28;45311;-42
2022/12/26 00:44:32;;;;;;;;;2.00;2.00;;;;;20.51;43.80;100903.41;4960982;28;54942;-42
2022/12/26 00:46:58;;;;;;;;;3.00;3.00;;;;;20.50;44.01;100899.94;4960245;28;45330;-42
2022/12/26 00:49:23;;;;;;;;;4.00;2.25;;;;;20.49;44.28;100905.28;4978423;28;46356;-42
2022/12/26 00:51:48;;;;;;;;;4.00;4.00;;;;;20.46;44.21;100913.31;4971335;28;45159;-43
2022/12/26 00:54:14;;;;;;;;;2.00;2.00;;;;;20.50;43.75;100917.50;4960507;28;45346;-42
2022/12/26 00:56:39;;;;;;;;;2.00;2.00;;;;;20.49;44.19;100903.50;4959134;28;56350;-42
2022/12/26 00:59:04;;;;;;;;;3.00;3.00;;;;;20.49;43.79;100903.50;4959424;28;46050;-41
2022/12/26 01:01:30;;;;;;;;;2.00;2.00;;;;;20.49;43.66;100892.09;4959135;28;45407;-42
2022/12/26 01:03:56;;;;;;;;;3.50;3.00;;;;;20.48;44.13;100906.19;4959231;28;45434;-42
2022/12/26 01:06:22;;;;;;;;;2.00;2.00;;;;;20.49;43.78;100905.28;4958924;28;45230;-42
2022/12/26 01:08:48;;;;;;;;;3.00;3.00;;;;;20.48;43.81;100922.88;4958542;28;45676;-42
2022/12/26 01:11:15;;;;;;;;;1.75;1.75;;;;;20.48;44.15;100917.59;4958513;28;45398;-42
2022/12/26 01:13:41;;;;;;;;;3.25;2.00;;;;;20.44;44.09;100902.06;4972463;28;45359;-42
2022/12/26 01:16:07;;;;;;;;;3.50;2.75;;;;;20.43;43.95;100913.50;4965633;28;45300;-43
2022/12/26 01:18:33;;;;;;;;;2.50;2.50;;;;;20.47;43.82;100929.06;4960944;28;45497;-42
2022/12/26 01:21:01;;;;;;;;;2.25;2.25;;;;;20.47;43.94;100938.72;4971657;28;45234;-43
2022/12/26 01:23:26;;;;;;;;;4.75;2.00;;;;;20.47;44.29;100936.09;4967997;28;45345;-42
2022/12/26 01:25:52;;;;;;;;;3.00;3.00;;;;;20.47;44.15;100930.81;4974341;28;45230;-42
2022/12/26 01:28:17;;;;;;;;;3.00;3.00;;;;;20.46;43.83;100929.13;4970444;28;45444;-45
2022/12/26 01:30:42;;;;;;;;;2.00;2.00;;;;;20.45;44.22;100930.91;4964055;28;64885;-42
2022/12/26 01:33:07;;;;;;;;;3.00;2.00;;;;;20.46;43.77;100921.22;4966011;28;51447;-42
2022/12/26 01:35:33;;;;;;;;;1.75;1.75;;;;;20.45;43.74;100928.28;4966247;28;45455;-41
2022/12/26 01:37:58;;;;;;;;;3.50;2.00;;;;;20.45;44.00;100927.44;4965612;28;45411;-42
2022/12/26 01:40:23;;;;;;;;;4.00;2.75;;;;;20.44;44.09;100942.38;4970705;28;45310;-42
2022/12/26 01:42:49;;;;;;;;;3.00;3.00;;;;;20.41;43.92;100939.91;4973474;28;45170;-42
2022/12/26 01:45:27;;;;;;;;;2.50;2.50;;;;;20.44;43.82;100952.06;4971679;28;45266;-42
2022/12/26 01:48:00;;;;;;;;;4.00;2.00;;;;;20.41;44.13;100949.59;4989748;28;47694;-42
2022/12/26 01:50:45;;;;;;;;;1.00;1.00;;;;;20.44;43.72;100979.22;4967299;28;45271;-42
2022/12/26 01:53:20;;;;;;;;;2.25;2.25;;;;;20.44;44.23;100991.56;4960738;28;45354;-44
2022/12/26 01:55:51;;;;;;;;;4.00;2.00;;;;;20.44;43.69;100999.47;4960630;28;45445;-42
2022/12/26 01:58:24;;;;;;;;;2.00;2.00;;;;;20.39;43.81;100987.38;4968665;28;47638;-43
2022/12/26 02:00:50;;;;;;;;;2.50;2.50;;;;;20.43;44.29;100990.69;4974207;28;45207;-46
2022/12/26 02:06:00;;;;;;;;;1.25;1.25;;;;;20.37;44.18;100981.34;4958713;28;45392;-44
2022/12/26 02:08:31;;;;;;;;;3.00;1.75;;;;;20.43;43.95;100981.97;4957787;28;45219;-42
2022/12/26 02:11:09;;;;;;;;;5.00;2.00;;;;;20.43;43.97;100984.59;4958079;28;45800;-42
2022/12/26 02:13:36;;;;;;;;;4.00;2.00;;;;;20.42;44.19;100990.78;4958807;28;45443;-42
2022/12/26 02:16:08;;;;;;;;;1.75;1.50;;;;;20.37;44.30;100991.03;4957929;28;45599;-42
2022/12/26 02:18:34;;;;;;;;;1.00;1.00;;;;;20.42;43.70;100975.00;4972333;28;45722;-41
2022/12/26 02:21:13;;;;;;;;;2.00;2.00;;;;;20.36;43.75;100950.69;4957508;28;49068;-42
2022/12/26 02:23:50;;;;;;;;;1.50;1.25;;;;;20.41;44.19;100954.84;4957950;28;45346;-42
2022/12/26 02:26:34;;;;;;;;;2.00;2.00;;;;;20.36;44.21;100952.47;4957761;28;45864;-41
2022/12/26 02:29:30;;;;;;;;;3.00;2.00;;;;;20.41;43.94;100965.38;4960333;28;46511;-43
2022/12/26 02:32:33;;;;;;;;;2.00;2.00;;;;;20.39;43.93;100978.66;4960604;28;45839;-42
2022/12/26 02:35:21;;;;;;;;;2.75;1.25;;;;;20.39;44.09;100992.63;4959802;28;45416;-42
2022/12/26 02:38:16;;;;;;;;;2.25;2.25;;;;;20.39;44.24;100997.91;4965407;28;45517;-42
2022/12/26 02:41:02;;;;;;;;;2.75;1.75;;;;;20.39;44.05;100986.53;4967381;28;45404;-42
2022/12/26 02:43:44;;;;;;;;;1.00;1.00;;;;;20.38;44.04;100963.78;4964126;28;45327;-42
2022/12/26 03:13:13;;;;;;;;;1.25;1.25;;;;;20.35;43.81;100969.19;4963197;28;45443;-42
2022/12/26 03:18:53;;;;;;;;;1.75;1.75;;;;;20.35;44.02;100956.88;4960359;28;45726;-44
2022/12/26 03:21:23;;;;;;;;;2.50;1.00;;;;;20.34;43.83;100947.28;4960529;28;45353;-42
2022/12/26 03:23:51;;;;;;;;;2.00;1.25;;;;;20.36;43.83;100953.31;4961615;28;45475;-44
2022/12/26 03:26:42;;;;;;;;;1.50;1.00;;;;;20.31;44.33;100949.22;4962744;28;46194;-42
2022/12/26 03:32:00;;;;;;;;;1.00;1.00;;;;;20.30;44.21;100955.41;4972208;28;45348;-50
2022/12/26 03:34:25;;;;;;;;;1.00;1.00;;;;;20.34;44.51;100962.22;4967942;28;45463;-42
2022/12/26 03:37:00;;;;;;;;;1.75;1.00;;;;;20.30;44.02;100951.00;4962150;28;45333;-42
2022/12/26 04:46:50;;;;;;;;;0.00;0.00;;;;;20.31;43.90;101015.88;4961817;28;46676;-44
2022/12/26 04:52:03;;;;;;;;;2.00;1.00;;;;;20.26;44.23;101025.78;4972598;28;45478;-42
2022/12/26 04:54:29;;;;;;;;;0.75;0.75;;;;;20.26;44.15;101033.69;4961937;28;45226;-41
2022/12/26 04:56:54;;;;;;;;;1.00;1.00;;;;;20.30;44.07;101055.44;4962371;28;44884;-42
2022/12/26 04:59:21;;;;;;;;;1.00;1.00;;;;;20.30;44.29;101058.06;4980270;28;45263;-42
2022/12/26 05:10:11;;;;;;;;;0.00;0.00;;;;;20.30;44.37;101056.28;4971858;28;45752;-43
2022/12/26 05:12:36;;;;;;;;;1.00;1.00;;;;;20.30;44.45;101072.09;4974651;28;45250;-42
2022/12/26 05:15:01;;;;;;;;;1.00;1.00;;;;;20.30;44.03;101065.97;4973174;28;45238;-42
2022/12/26 05:28:43;;;;;;;;;0.00;0.00;;;;;20.27;44.17;101051.19;4981649;28;45455;-43
2022/12/26 05:31:16;;;;;;;;;2.00;1.00;;;;;20.32;44.13;101054.44;4975228;28;45179;-42
2022/12/26 05:36:33;;;;;;;;;1.00;1.00;;;;;20.33;44.03;101068.44;4969825;28;45431;-44
2022/12/26 05:39:00;;;;;;;;;0.00;0.00;;;;;20.31;44.60;101068.53;4970612;28;46314;-42
2022/12/26 05:41:26;;;;;;;;;0.00;0.00;;;;;20.31;44.58;101073.81;4978832;28;45151;-42
2022/12/26 05:43:51;;;;;;;;;0.00;0.00;;;;;20.28;44.57;101073.94;4984249;28;44795;-42
2022/12/26 05:46:17;;;;;;;;;0.00;0.00;;;;;20.30;44.22;101082.63;4993150;28;45522;-45
2022/12/26 05:48:42;;;;;;;;;1.00;0.25;;;;;20.30;44.60;101089.66;4967121;28;46315;-42
2022/12/26 05:51:07;;;;;;;;;0.00;0.00;;;;;20.30;44.54;101093.16;4979082;28;44629;-43
2022/12/26 05:53:32;;;;;;;;;2.00;0.67;;;;;20.30;44.37;101111.56;4973824;28;60124;-45
2022/12/26 05:56:03;;;;;;;;;0.00;0.00;;;;;20.30;44.57;101119.47;4976379;28;44762;-42
2022/12/26 05:58:29;;;;;;;;;0.00;0.00;;;;;20.30;44.27;101119.47;4978981;28;48230;-42
2022/12/26 06:01:06;;;;;;;;;1.00;1.00;;;;;20.29;44.47;101109.88;4964428;28;45413;-44
2022/12/26 06:03:32;;;;;;;;;1.00;1.00;;;;;20.29;44.63;101115.13;4977171;28;44767;-42
2022/12/26 06:05:58;;;;;;;;;0.00;0.00;;;;;20.28;44.46;101110.78;4979994;28;44922;-41
2022/12/26 06:08:23;;;;;;;;;0.00;0.00;;;;;20.29;44.34;101109.88;4967978;28;45298;-43
2022/12/26 06:10:48;;;;;;;;;0.00;0.00;;;;;20.29;44.78;101114.25;4966818;28;63054;-42
2022/12/26 06:13:13;;;;;;;;;1.00;1.00;;;;;20.28;44.47;101104.69;4965675;28;64142;-42
2022/12/26 06:15:39;;;;;;;;;0.25;0.25;;;;;20.25;44.79;101108.31;4969087;28;45336;-42
2022/12/26 06:18:04;;;;;;;;;0.00;0.00;;;;;20.28;44.86;101100.25;4965289;28;47052;-41
2022/12/26 06:20:29;;;;;;;;;0.50;0.50;;;;;20.27;44.47;101095.94;4960526;28;45366;-42
2022/12/26 06:22:55;;;;;;;;;2.25;1.00;;;;;20.27;44.29;101092.47;4961812;28;52186;-42
2022/12/26 06:25:20;;;;;;;;;1.00;1.00;;;;;20.27;44.80;101093.28;4963301;28;45281;-42
2022/12/26 06:27:45;;;;;;;;;0.00;0.00;;;;;20.27;44.78;101082.75;4961661;28;45959;-41
2022/12/26 06:30:11;;;;;;;;;0.50;0.50;;;;;20.21;44.88;101075.19;4958382;28;45280;-41
2022/12/26 06:32:36;;;;;;;;;3.00;0.00;;;;;20.27;44.07;101093.28;4978302;28;45151;-41
2022/12/26 06:35:01;;;;;;;;;0.00;0.00;;;;;20.26;44.50;101096.00;4963798;28;45207;-42
2022/12/26 06:37:27;;;;;;;;;1.00;1.00;;;;;20.27;44.38;101105.63;4957880;28;46031;-42
2022/12/26 06:39:52;;;;;;;;;0.25;0.25;;;;;20.25;44.43;101110.94;4958289;28;45282;-41
2022/12/26 06:42:17;;;;;;;;;0.00;0.00;;;;;20.26;44.72;101119.69;4979307;28;46001;-42
2022/12/26 06:44:43;;;;;;;;;0.00;0.00;;;;;20.20;44.29;101111.16;4977989;28;45375;-42
2022/12/26 06:47:08;;;;;;;;;2.00;1.00;;;;;20.24;44.53;101123.25;4962058;28;57539;-47
2022/12/26 06:49:33;;;;;;;;;1.00;1.00;;;;;20.24;44.48;101136.41;4960567;28;65000;-42
2022/12/26 06:51:59;;;;;;;;;0.67;0.67;;;;;20.25;44.35;101142.53;4961248;28;57085;-43
2022/12/26 06:54:24;;;;;;;;;0.00;0.00;;;;;20.22;44.45;101129.53;4961383;28;45689;-41
2022/12/26 06:56:49;;;;;;;;;0.00;0.00;;;;;20.25;44.45;101137.25;4960572;28;58718;-42
2022/12/26 06:59:14;;;;;;;;;1.00;0.00;;;;;20.24;44.54;101138.19;4961727;28;69444;-43
2022/12/26 07:01:40;;;;;;;;;0.25;0.25;;;;;20.24;44.16;101136.41;4964458;28;53683;-42
2022/12/26 07:04:05;;;;;;;;;2.00;0.00;;;;;20.23;44.22;101144.38;4969576;28;53306;-42
2022/12/26 07:06:36;;;;;;;;;0.00;0.00;;;;;20.24;44.27;101148.72;4982708;28;47173;-44
2022/12/26 07:09:13;;;;;;;;;0.00;0.00;;;;;20.24;44.25;101157.47;4983936;28;44995;-43
2022/12/26 07:11:40;;;;;;;;;0.00;0.00;;;;;20.24;44.56;101156.59;4981598;28;44719;-42
2022/12/26 07:14:06;;;;;;;;;0.75;0.75;;;;;20.23;44.60;101149.63;4977187;28;44818;-42
2022/12/26 07:16:36;;;;;;;;;0.00;0.00;;;;;20.18;44.03;101149.88;4961648;28;46941;-42
2022/12/26 07:19:02;;;;;;;;;0.00;0.00;;;;;20.22;44.11;101158.47;4960891;28;45616;-42
2022/12/26 07:21:28;;;;;;;;;0.75;0.00;;;;;20.22;44.32;101155.84;4960315;28;45239;-42
2022/12/26 07:23:54;;;;;;;;;0.25;0.00;;;;;20.21;44.33;101167.31;4960459;28;45353;-41
2022/12/26 07:26:20;;;;;;;;;1.00;1.00;;;;;20.22;44.11;101169.00;4959810;28;46273;-41
2022/12/26 07:28:45;;;;;;;;;1.00;1.00;;;;;20.22;44.03;101179.53;4959926;28;45381;-42
2022/12/26 07:31:18;;;;;;;;;0.00;0.00;;;;;20.21;44.32;101183.09;4959563;28;55267;-41
2022/12/26 07:33:51;;;;;;;;;0.00;0.00;;;;;20.21;43.91;101172.56;4960117;28;45472;-42
2022/12/26 07:36:17;;;;;;;;;0.25;0.25;;;;;20.21;44.59;101176.03;4959486;28;46306;-43
2022/12/26 07:38:42;;;;;;;;;0.00;0.00;;;;;20.21;44.13;101178.66;4960410;28;45730;-42
2022/12/26 07:43:52;;;;;;;;;1.00;0.00;;;;;20.19;44.15;101169.16;4963451;28;45355;-41
2022/12/26 07:46:17;;;;;;;;;0.00;0.00;;;;;20.19;44.02;101175.25;4960304;28;53981;-42
2022/12/26 07:48:43;;;;;;;;;1.00;0.00;;;;;20.19;44.11;101185.78;4961129;28;45394;-41
2022/12/26 07:51:08;;;;;;;;;0.00;0.00;;;;;20.15;44.49;101178.13;4964588;28;45364;-41
2022/12/26 07:53:34;;;;;;;;;0.00;0.00;;;;;20.19;44.60;101200.72;4978869;28;45395;-41
2022/12/26 07:55:59;;;;;;;;;1.75;0.50;;;;;20.19;44.47;101201.56;4973654;28;46039;-44
2022/12/26 07:58:25;;;;;;;;;0.00;0.00;;;;;20.20;44.24;101205.06;4980398;28;44803;-41
2022/12/26 08:00:50;;;;;;;;;1.00;0.00;;;;;20.18;44.50;101205.13;4967340;28;45388;-41
2022/12/26 08:03:15;;;;;;;;;0.00;0.00;;;;;20.19;44.51;101212.09;4970658;28;45388;-42
2022/12/26 08:05:44;;;;;;;;;0.00;0.00;;;;;20.18;44.38;101210.38;4974847;28;45462;-41
2022/12/26 08:08:09;;;;;;;;;1.50;1.00;;;;;20.18;44.52;101206.91;4965591;28;45235;-41
2022/12/26 08:10:35;;;;;;;;;1.00;1.00;;;;;20.18;44.20;101212.19;4975149;28;62556;-42
2022/12/26 08:13:00;;;;;;;;;0.00;0.00;;;;;20.18;44.06;101213.03;4959220;28;53393;-42
2022/12/26 08:15:25;;;;;;;;;1.75;0.00;;;;;20.18;43.99;101214.81;4959817;28;47150;-41
2022/12/26 08:17:50;;;;;;;;;1.50;0.00;;;;;20.18;43.92;101222.72;4959257;28;45350;-41
2022/12/26 08:20:16;;;;;;;;;0.50;0.00;;;;;20.18;44.26;101227.97;4959915;28;45459;-41
2022/12/26 08:22:41;;;;;;;;;0.00;0.00;;;;;20.18;44.34;101220.09;4966041;28;45528;-42
2022/12/26 08:25:07;;;;;;;;;1.25;0.00;;;;;20.18;44.36;101230.59;4978669;28;46283;-42
2022/12/26 08:27:32;;;;;;;;;0.00;0.00;;;;;20.17;44.08;101227.13;4979986;28;45324;-43
2022/12/26 08:29:58;;;;;;;;;0.50;0.50;;;;;20.12;44.17;101220.38;4968380;28;52183;-42
2022/12/26 08:32:23;;;;;;;;;0.50;0.50;;;;;20.18;44.46;101227.97;4962716;28;45654;-42
2022/12/26 08:34:48;;;;;;;;;2.00;0.75;;;;;20.18;43.90;101246.41;4961176;28;64418;-41
2022/12/26 08:37:14;;;;;;;;;0.75;0.75;;;;;20.14;44.34;101240.44;4960777;28;45284;-43
2022/12/26 08:39:39;;;;;;;;;0.00;0.00;;;;;20.17;44.40;101245.56;4963191;28;45309;-42
2022/12/26 08:42:04;;;;;;;;;0.00;0.00;;;;;20.17;44.11;101257.84;4979926;28;61151;-42
2022/12/26 08:44:30;;;;;;;;;0.50;0.50;;;;;20.17;44.43;101271.00;4975429;28;54320;-42
2022/12/26 08:46:55;;;;;;;;;0.00;0.00;;;;;20.17;43.99;101271.88;4960907;28;45357;-45
2022/12/26 08:49:20;;;;;;;;;0.00;0.00;;;;;20.12;43.90;101258.06;4958766;28;53891;-43
2022/12/26 08:51:46;;;;;;;;;0.00;0.00;;;;;20.17;44.47;101276.28;4959132;28;45349;-44
2022/12/26 08:54:11;;;;;;;;;0.00;0.00;;;;;20.17;44.21;101271.00;4960996;28;47344;-42
2022/12/26 08:56:36;;;;;;;;;0.00;0.00;;;;;20.13;44.56;101274.69;4968431;28;45357;-42
2022/12/26 08:59:02;;;;;;;;;1.00;0.00;;;;;20.16;44.12;101280.69;4960509;28;60894;-46
2022/12/26 09:01:29;;;;;;;;;0.00;0.00;;;;;20.16;44.25;101291.22;4962401;28;45423;-43
2022/12/26 09:03:57;;;;;;;;;1.00;1.00;;;;;20.13;44.21;101293.13;4967176;28;46293;-42
2022/12/26 09:06:24;;;;;;;;;0.00;0.00;;;;;20.14;44.35;101297.47;4979294;28;45646;-47
2022/12/26 09:08:49;;;;;;;;;0.50;0.00;;;;;20.12;44.10;101289.66;4985237;28;45378;-42
2022/12/26 09:11:18;;;;;;;;;2.00;0.00;;;;;20.13;44.41;101301.00;4962685;28;45531;-42
2022/12/26 09:13:45;;;;;;;;;2.00;1.00;;;;;20.12;43.94;101305.44;4961793;28;46244;-43
2022/12/26 09:16:16;;;;;;;;;1.00;1.00;;;;;20.11;44.00;101311.63;4958771;28;45181;-41
2022/12/26 09:18:42;;;;;;;;;2.00;2.00;;;;;20.02;43.48;101299.72;4958908;28;45409;-42
2022/12/26 09:21:09;;;;;;;;;0.00;0.00;;;;;20.00;44.09;101308.63;4961586;28;45551;-46
2022/12/26 09:23:36;;;;;;;;;0.50;0.50;;;;;20.05;43.64;101322.44;4959459;28;45576;-45
2022/12/26 09:26:06;;;;;;;;;0.00;0.00;;;;;20.04;44.10;101316.31;4963209;28;45234;-42
2022/12/26 09:28:32;;;;;;;;;1.00;0.00;;;;;20.01;43.87;101316.44;4961562;28;45399;-45
2022/12/26 09:31:00;;;;;;;;;1.00;1.00;;;;;20.03;43.92;101322.50;4959535;28;45543;-43
2022/12/26 09:33:25;;;;;;;;;1.25;0.00;;;;;20.03;43.77;101329.53;4959775;28;46323;-42
2022/12/26 09:35:50;;;;;;;;;2.00;0.00;;;;;20.03;44.22;101324.28;4977499;28;49602;-45
2022/12/26 09:38:15;;;;;;;;;2.67;1.00;;;;;20.02;44.06;101318.16;4964486;28;60463;-42
2022/12/26 09:41:03;;;;;;;;;1.00;1.00;;;;;20.02;43.67;101325.19;4969214;28;58907;-45
2022/12/26 09:43:47;;;;;;;;;0.00;0.00;;;;;20.01;44.05;101326.97;4944383;28;47034;-44
2022/12/26 09:46:20;;;;;;;;;1.00;1.00;;;;;20.01;44.05;101319.06;4959482;28;45258;-43
2022/12/26 09:48:55;;;;;;;;;4.00;1.50;;;;;19.96;43.63;101325.47;4961831;28;45393;-45
2022/12/26 09:51:21;;;;;;;;;2.00;1.00;;;;;19.96;43.59;101333.34;4966493;28;45269;-41
2022/12/26 09:53:46;;;;;;;;;1.00;1.00;;;;;20.00;44.13;101340.19;4962862;28;45385;-44
2022/12/26 09:56:18;;;;;;;;;1.00;0.75;;;;;20.00;43.90;101354.22;4968557;28;45223;-43
2022/12/26 09:58:47;;;;;;;;;2.50;1.00;;;;;20.00;44.04;101343.69;4973354;28;45282;-44
2022/12/26 10:01:19;;;;;;;;;1.25;1.00;;;;;19.99;43.55;101352.50;4965256;28;45306;-41
2022/12/26 10:03:55;;;;;;;;;1.50;1.00;;;;;19.99;43.68;101351.66;4964479;28;45330;-42
2022/12/26 10:06:25;;;;;;;;;2.00;1.00;;;;;19.98;44.01;101342.91;4961578;28;45703;-41
2022/12/26 10:09:18;;;;;;;;;1.00;1.00;;;;;19.98;44.13;101340.28;4959862;28;45294;-44
2022/12/26 10:12:05;;;;;;;;;2.00;1.00;;;;;19.98;43.66;101347.31;4971210;28;45330;-41
2022/12/26 10:14:50;;;;;;;;;1.25;1.00;;;;;19.97;43.82;101351.72;4979654;28;47749;-46
2022/12/26 10:17:37;;;;;;;;;1.00;1.00;;;;;19.97;43.90;101335.94;4979403;28;45983;-42
2022/12/26 10:20:12;;;;;;;;;0.25;0.25;;;;;19.96;43.99;101352.66;4982904;28;45324;-42
2022/12/26 10:22:57;;;;;;;;;4.00;1.00;;;;;19.95;43.89;101353.56;5000914;28;45593;-41
2022/12/26 10:25:31;;;;;;;;;0.00;0.00;;;;;19.96;44.00;101351.78;4962898;28;45325;-42
2022/12/26 10:27:57;;;;;;;;;1.75;1.00;;;;;19.96;43.56;101351.78;4963145;28;45042;-44
2022/12/26 10:30:30;;;;;;;;;1.00;1.00;;;;;19.97;43.58;101349.09;4946858;28;45348;-42
2022/12/26 10:33:01;;;;;;;;;4.00;1.00;;;;;19.97;43.89;101346.47;4942639;28;45387;-43
2022/12/26 10:35:41;;;;;;;;;2.00;1.00;;;;;19.98;44.05;101348.16;4941562;28;45531;-42
2022/12/26 10:38:17;;;;;;;;;0.75;0.00;;;;;19.98;43.50;101345.53;4947908;28;45242;-42
2022/12/26 10:40:49;;;;;;;;;0.25;0.25;;;;;19.98;43.48;101347.31;4957966;28;44723;-45
2022/12/26 10:43:24;;;;;;;;;1.00;1.00;;;;;19.89;43.87;101338.06;4950833;28;45451;-42
2022/12/26 10:46:16;;;;;;;;;0.25;0.25;;;;;19.96;43.93;101344.75;4945832;28;46710;-46
2022/12/26 10:48:41;;;;;;;;;2.25;1.25;;;;;19.97;43.70;101354.34;4939955;28;45666;-48
2022/12/26 10:51:07;;;;;;;;;1.50;0.50;;;;;19.96;43.51;101352.66;4942158;28;60610;-43
2022/12/26 10:53:38;;;;;;;;;1.00;1.00;;;;;19.97;43.40;101353.47;4945238;28;45224;-50
2022/12/26 10:56:03;;;;;;;;;1.00;1.00;;;;;19.97;43.28;101353.47;4944479;28;45429;-55
2022/12/26 10:58:33;;;;;;;;;0.00;0.00;;;;;19.98;43.51;101361.31;4940905;28;45435;-45
2022/12/26 11:01:27;;;;;;;;;0.00;0.00;;;;;19.99;43.95;101359.53;4975075;28;45393;-45
2022/12/26 11:03:55;;;;;;;;;0.25;0.25;;;;;20.00;43.96;101359.50;4982434;28;45416;-41
2022/12/26 11:06:24;;;;;;;;;3.75;1.00;;;;;20.01;43.67;101360.31;4980837;28;47100;-45
2022/12/26 11:08:50;;;;;;;;;2.00;0.00;;;;;20.01;43.47;101358.53;4998810;28;45047;-44
2022/12/26 11:11:23;;;;;;;;;1.00;1.00;;;;;20.01;43.51;101361.16;4988750;28;45249;-44
2022/12/26 11:13:52;;;;;;;;;2.00;0.50;;;;;20.01;43.52;101363.78;4980122;28;45443;-44
2022/12/26 11:16:30;;;;;;;;;1.00;0.25;;;;;20.01;43.52;101360.31;4979446;28;45972;-44
2022/12/26 11:18:57;;;;;;;;;0.00;0.00;;;;;20.02;43.73;101364.66;4979912;28;45513;-42
2022/12/26 11:21:28;;;;;;;;;1.00;1.00;;;;;20.02;43.35;101351.50;4979629;28;45413;-44
2022/12/26 11:24:05;;;;;;;;;0.00;0.00;;;;;20.01;43.25;101363.78;4980518;28;45175;-43
2022/12/26 11:26:31;;;;;;;;;0.25;0.25;;;;;20.01;43.78;101360.31;4984000;28;45416;-44
2022/12/26 11:29:19;;;;;;;;;0.75;0.75;;;;;20.00;43.39;101354.22;4987145;28;45249;-41
2022/12/26 11:32:02;;;;;;;;;1.75;0.50;;;;;19.97;43.89;101348.22;4981012;28;45197;-43
2022/12/26 11:34:37;;;;;;;;;0.00;0.00;;;;;19.98;43.68;101355.19;4990731;28;45598;-46
2022/12/26 11:37:05;;;;;;;;;2.00;1.00;;;;;19.97;43.33;101351.72;4998942;28;45633;-43
2022/12/26 11:39:36;;;;;;;;;2.00;1.00;;;;;19.97;43.57;101356.13;4991000;28;45791;-42
2022/12/26 11:42:17;;;;;;;;;0.00;0.00;;;;;19.95;43.53;101360.63;4988672;28;45325;-42
2022/12/26 11:44:44;;;;;;;;;1.75;1.00;;;;;19.93;43.22;101361.53;4993875;28;45315;-41
2022/12/26 11:47:12;;;;;;;;;0.50;0.50;;;;;19.94;43.28;101375.53;4994289;28;46403;-44
2022/12/26 11:50:00;;;;;;;;;1.00;1.00;;;;;19.91;43.32;101379.16;4997186;28;45783;-44
2022/12/26 11:52:45;;;;;;;;;1.00;1.00;;;;;19.88;43.65;101371.41;4990386;28;45286;-44
2022/12/26 11:55:23;;;;;;;;;1.00;1.00;;;;;19.89;43.65;101374.91;4985338;28;45336;-45
2022/12/26 11:58:07;;;;;;;;;0.00;0.00;;;;;19.87;43.61;101368.84;4984157;28;46247;-43
2022/12/26 12:00:41;;;;;;;;;0.25;0.00;;;;;19.87;43.50;101364.41;4994549;28;45246;-46
2022/12/26 12:03:20;;;;;;;;;1.00;0.00;;;;;19.87;43.41;101374.94;4994482;28;45363;-42
2022/12/26 12:05:55;;;;;;;;;0.50;0.50;;;;;19.85;43.69;101375.91;4997784;28;45496;-43
2022/12/26 12:08:29;;;;;;;;;3.00;1.00;;;;;19.86;43.38;101377.66;4983021;28;45326;-41
2022/12/26 12:11:28;;;;;;;;;7.00;2.00;;;;;19.84;43.79;101379.47;4984377;28;45341;-41
2022/12/26 12:14:20;;;;;;;;;0.75;0.75;;;;;19.80;43.26;101393.66;4981401;28;45332;-42
2022/12/26 12:17:29;;;;;;;;;1.50;1.50;;;;;19.77;43.48;101395.53;4982619;28;45429;-45
2022/12/26 12:19:57;;;;;;;;;1.75;1.00;;;;;19.75;43.54;101396.47;4981394;28;46703;-41
2022/12/26 12:22:34;;;;;;;;;1.75;1.00;;;;;19.75;43.61;101399.97;4982666;28;45227;-43
2022/12/26 12:25:27;;;;;;;;;2.50;0.50;;;;;19.70;43.43;101398.47;4998941;28;45408;-47
2022/12/26 12:28:34;;;;;;;;;0.00;0.00;;;;;19.67;43.74;101398.59;4988925;28;45355;-42
2022/12/26 12:31:44;;;;;;;;;0.50;0.00;;;;;19.67;43.88;101401.22;4998676;28;47407;-44
2022/12/26 12:34:30;;;;;;;;;0.00;0.00;;;;;19.72;43.38;101407.16;4962864;28;45756;-43
2022/12/26 12:37:21;;;;;;;;;3.00;2.00;;;;;19.71;44.03;101427.31;4984329;28;45178;-42
2022/12/26 12:40:01;;;;;;;;;1.00;0.00;;;;;19.68;43.81;101426.59;4985813;28;45420;-44
2022/12/26 12:42:49;;;;;;;;;1.00;1.00;;;;;19.61;44.16;101431.25;4987836;28;47433;-42
2022/12/26 12:45:35;;;;;;;;;5.50;1.50;;;;;19.45;44.52;101426.66;4977430;28;45874;-46
2022/12/26 12:48:03;;;;;;;;;2.50;2.00;;;;;19.40;44.38;101439.13;4978531;28;45403;-42
2022/12/26 12:50:38;;;;;;;;;2.25;1.25;;;;;19.40;44.65;101431.25;4978579;28;45452;-41
2022/12/26 12:53:30;;;;;;;;;3.75;0.50;;;;;19.59;44.91;101440.97;4978731;28;45341;-42
2022/12/26 12:56:17;;;;;;;;;8.50;0.00;;;;;19.67;44.33;101443.31;4981671;28;45344;-42
2022/12/26 12:58:49;;;;;;;;;1.25;1.00;;;;;19.71;44.37;101448.38;4981638;28;45390;-41
2022/12/26 13:01:21;;;;;;;;;1.00;1.00;;;;;19.75;43.95;101442.06;4978259;28;45318;-42
2022/12/26 13:04:01;;;;;;;;;3.25;0.75;;;;;19.75;44.09;101442.06;4978256;28;46426;-43
2022/12/26 13:06:39;;;;;;;;;2.25;0.00;;;;;19.82;44.46;101447.06;4981507;28;45370;-42
2022/12/26 13:09:27;;;;;;;;;0.00;0.00;;;;;19.84;44.08;101459.25;4983169;28;45375;-43
2022/12/26 13:11:59;;;;;;;;;1.50;1.50;;;;;19.85;44.14;101460.94;4977667;28;45385;-42
2022/12/26 13:14:33;;;;;;;;;1.50;1.00;;;;;19.87;44.31;101459.13;4977505;28;47586;-43
2022/12/26 13:17:21;;;;;;;;;6.25;2.25;;;;;19.90;44.42;101468.66;4977717;28;45267;-44
2022/12/26 13:20:04;;;;;;;;;4.50;2.00;;;;;19.93;44.27;101468.53;4978611;28;45290;-42
2022/12/26 13:25:35;;;;;;;;;4.00;1.00;;;;;19.99;44.44;101468.28;4985185;28;45909;-40
2022/12/26 13:28:08;;;;;;;;;2.50;1.75;;;;;20.00;44.42;101475.25;4977660;28;45755;-45
2022/12/26 13:30:34;;;;;;;;;2.75;2.00;;;;;20.01;44.30;101476.94;4977666;28;45417;-41
2022/12/26 13:32:59;;;;;;;;;3.50;1.25;;;;;20.00;44.17;101471.75;4979834;28;45413;-43
2022/12/26 13:35:46;;;;;;;;;2.00;2.00;;;;;20.03;44.52;101474.25;4978344;28;46504;-42
2022/12/26 13:38:11;;;;;;;;;3.00;1.75;;;;;20.03;44.66;101475.09;4979242;28;45376;-42
2022/12/26 13:40:45;;;;;;;;;3.75;1.00;;;;;20.05;45.20;101481.16;4995952;28;46311;-43
2022/12/26 13:46:31;;;;;;;;;1.00;1.00;;;;;20.03;45.08;101477.72;4976313;28;45912;-43
2022/12/26 13:48:58;;;;;;;;;4.50;1.00;;;;;20.02;44.56;101473.38;4977185;28;45862;-42
2022/12/26 13:51:51;;;;;;;;;1.00;1.00;;;;;19.98;44.39;101485.00;4979728;28;45472;-43
2022/12/26 13:54:18;;;;;;;;;2.00;1.00;;;;;19.96;44.60;101493.84;4980697;28;45274;-44
2022/12/26 13:56:43;;;;;;;;;2.50;1.50;;;;;19.95;44.53;101497.41;4978752;28;46187;-43
2022/12/26 13:59:20;;;;;;;;;3.67;0.67;;;;;19.92;44.48;101515.03;4978016;28;45332;-43